Time;durP1;ratioP1;P1;durP2;ratioP2;P2;SDS_P1;SDS_P2;PMS_P1;PMS_P2;Temp;Humidity;BMP_temperature;BMP_pressure;BME280_temperature;BME280_humidity;BME280_pressure;Samples;Min_cycle;Max_cycle;Signal;HPM_P1;HPM_P2
2021/05/26 00:01:54;;;;;;;7.35;5.45;;;;;;;16.18;65.17;99646.52;1695228;83;21041;-74
2021/05/26 00:04:21;;;;;;;8.75;5.60;;;;;;;16.13;64.97;99644.78;1701483;84;21600;-74
2021/05/26 00:06:48;;;;;;;8.40;5.83;;;;;;;16.21;64.80;99643.58;1691484;84;21026;-74
2021/05/26 00:09:14;;;;;;;8.08;5.65;;;;;;;16.15;64.90;99642.83;1686777;84;21043;-74
2021/05/26 00:11:41;;;;;;;7.78;5.87;;;;;;;16.06;65.13;99645.02;1705155;84;21082;-74
2021/05/26 00:14:09;;;;;;;7.75;5.08;;;;;;;15.97;65.41;99645.42;1712758;83;21301;-75
2021/05/26 00:16:37;;;;;;;7.03;4.90;;;;;;;15.92;65.59;99641.48;1693920;85;21066;-75
2021/05/26 00:19:06;;;;;;;8.75;5.20;;;;;;;15.99;65.55;99635.42;1689006;83;21121;-74
2021/05/26 00:21:33;;;;;;;7.58;4.80;;;;;;;15.98;65.64;99639.58;1690192;83;21121;-74
2021/05/26 00:24:00;;;;;;;7.92;4.60;;;;;;;15.91;65.87;99631.33;1722273;83;21082;-72
2021/05/26 00:26:26;;;;;;;7.08;4.97;;;;;;;15.85;66.06;99632.73;1705331;82;21624;-72
2021/05/26 00:28:54;;;;;;;4.97;4.28;;;;;;;15.82;66.25;99642.37;1693136;83;21018;-72
2021/05/26 00:31:24;;;;;;;5.20;4.28;;;;;;;15.92;66.15;99644.16;1685631;84;21117;-72
2021/05/26 00:33:51;;;;;;;6.37;4.42;;;;;;;15.91;66.24;99633.99;1691557;83;21086;-72
2021/05/26 00:36:17;;;;;;;7.35;4.60;;;;;;;15.85;66.43;99637.23;1693958;85;21081;-72
2021/05/26 00:38:45;;;;;;;5.05;3.87;;;;;;;15.82;66.63;99643.70;1716672;83;21070;-73
2021/05/26 00:41:12;;;;;;;6.65;4.53;;;;;;;15.83;66.67;99633.39;1722825;83;21013;-72
2021/05/26 00:43:38;;;;;;;5.58;4.20;;;;;;;15.92;66.61;99634.82;1722831;83;21034;-72
2021/05/26 00:46:07;;;;;;;4.97;3.92;;;;;;;15.91;66.66;99634.47;1722471;83;21060;-72
2021/05/26 00:48:33;;;;;;;5.30;4.15;;;;;;;15.88;66.80;99629.80;1692431;83;21062;-72
2021/05/26 00:51:00;;;;;;;6.22;3.85;;;;;;;15.85;66.88;99633.23;1722672;83;21042;-73
2021/05/26 00:53:28;;;;;;;5.35;4.00;;;;;;;15.94;66.75;99634.20;1722354;83;21117;-72
2021/05/26 00:55:55;;;;;;;4.80;3.65;;;;;;;15.96;66.73;99628.20;1697286;83;21059;-72
2021/05/26 00:58:23;;;;;;;4.75;3.65;;;;;;;15.89;66.91;99623.95;1694684;83;21541;-73
2021/05/26 01:00:51;;;;;;;5.60;3.55;;;;;;;15.82;67.11;99627.70;1701276;83;21137;-72
2021/05/26 01:03:21;;;;;;;4.08;3.60;;;;;;;15.86;67.17;99631.75;1722501;83;21065;-72
2021/05/26 01:05:48;;;;;;;5.55;3.52;;;;;;;15.93;67.05;99623.17;1722163;83;21030;-72
2021/05/26 01:08:14;;;;;;;6.10;3.42;;;;;;;15.86;67.23;99620.26;1722897;83;21014;-72
2021/05/26 01:10:43;;;;;;;5.50;3.22;;;;;;;15.81;67.40;99619.34;1722445;83;21007;-72
2021/05/26 01:13:32;;;;;;;4.17;3.33;;;;;;;15.76;67.54;99610.91;1723989;83;21145;-72
2021/05/26 01:15:59;;;;;;;5.33;3.55;;;;;;;15.82;67.46;99607.70;1720650;83;21073;-72
2021/05/26 01:18:32;;;;;;;4.78;3.42;;;;;;;15.81;67.49;99602.49;1724037;83;21074;-72
2021/05/26 01:21:07;;;;;;;5.22;3.70;;;;;;;15.73;67.70;99608.05;1721702;83;21066;-72
2021/05/26 01:23:36;;;;;;;5.28;3.50;;;;;;;15.65;67.95;99603.09;1695561;84;21593;-72
2021/05/26 01:26:06;;;;;;;3.92;3.50;;;;;;;15.67;68.04;99604.63;1713324;83;21054;-72
2021/05/26 01:28:36;;;;;;;4.85;3.47;;;;;;;15.74;68.03;99606.20;1711285;83;21595;-72
2021/05/26 01:31:04;;;;;;;4.87;3.40;;;;;;;15.69;68.24;99606.66;1696298;83;21086;-72
2021/05/26 01:33:32;;;;;;;4.50;3.22;;;;;;;15.65;68.43;99611.08;1723808;83;21086;-74
2021/05/26 01:36:05;;;;;;;5.50;3.20;;;;;;;15.66;68.44;99601.59;1722012;83;21094;-72
2021/05/26 01:38:32;;;;;;;4.15;3.45;;;;;;;15.77;68.23;99607.74;1724160;83;21054;-72
2021/05/26 01:41:02;;;;;;;5.00;3.42;;;;;;;15.74;68.23;99604.87;1724145;83;21119;-72
2021/05/26 01:43:31;;;;;;;4.62;3.27;;;;;;;15.66;68.42;99603.44;1719742;83;21053;-72
2021/05/26 01:46:00;;;;;;;4.92;3.35;;;;;;;15.59;68.60;99604.98;1721477;83;21030;-72
2021/05/26 01:48:27;;;;;;;5.67;3.30;;;;;;;15.64;68.52;99598.73;1724343;83;21070;-72
2021/05/26 01:50:55;;;;;;;6.17;3.42;;;;;;;15.58;68.64;99601.49;1723955;83;21054;-72
2021/05/26 01:53:23;;;;;;;5.40;3.42;;;;;;;15.48;68.92;99598.84;1710239;83;21087;-72
2021/05/26 01:55:50;;;;;;;4.22;3.50;;;;;;;15.44;69.11;99610.78;1714645;83;21105;-72
2021/05/26 01:58:17;;;;;;;5.03;3.60;;;;;;;15.51;69.02;99607.90;1724216;83;21045;-72
2021/05/26 02:00:45;;;;;;;7.95;4.12;;;;;;;15.52;69.09;99615.39;1724287;83;21324;-72
2021/05/26 02:03:12;;;;;;;6.28;3.50;;;;;;;15.42;69.35;99601.24;1723611;83;21018;-72
2021/05/26 02:05:39;;;;;;;5.15;3.27;;;;;;;15.33;69.60;99594.47;1705889;83;21053;-72
2021/05/26 02:08:07;;;;;;;5.92;3.60;;;;;;;15.38;69.65;99600.68;1724169;83;21129;-72
2021/05/26 02:13:20;;;;;;;4.87;3.90;;;;;;;15.35;69.83;99591.66;1700036;83;21544;-72
2021/05/26 02:15:54;;;;;;;5.60;3.60;;;;;;;15.30;70.04;99577.42;1690889;85;21053;-72
2021/05/26 02:18:22;;;;;;;3.83;3.02;;;;;;;15.31;70.14;99583.61;1695923;84;21577;-72
2021/05/26 02:20:48;;;;;;;6.28;3.87;;;;;;;15.39;70.02;99583.72;1683520;84;21616;-74
2021/05/26 02:23:14;;;;;;;7.53;4.33;;;;;;;15.37;70.18;99585.67;1690145;84;21029;-74
2021/05/26 02:25:45;;;;;;;6.05;4.17;;;;;;;15.34;70.32;99578.80;1692235;84;21073;-72
2021/05/26 02:28:11;;;;;;;4.95;3.52;;;;;;;15.35;70.41;99583.66;1691339;84;21078;-72
2021/05/26 02:30:37;;;;;;;6.33;4.00;;;;;;;15.41;70.37;99588.42;1684112;84;21128;-72
2021/05/26 02:33:06;;;;;;;6.67;3.80;;;;;;;15.51;70.19;99581.25;1680070;85;21076;-72
2021/05/26 02:35:32;;;;;;;5.30;3.87;;;;;;;15.53;70.19;99595.25;1684726;84;21545;-75
2021/05/26 02:37:59;;;;;;;5.25;3.25;;;;;;;15.53;70.30;99597.91;1690343;84;21566;-74
2021/05/26 02:40:27;;;;;;;5.33;3.40;;;;;;;15.60;70.22;99599.53;1688565;84;21652;-72
2021/05/26 02:42:55;;;;;;;5.60;4.00;;;;;;;15.73;69.95;99601.38;1668739;85;21042;-72
2021/05/26 02:45:22;;;;;;;6.05;4.05;;;;;;;15.73;69.97;99605.88;1689339;85;21046;-72
2021/05/26 02:47:50;;;;;;;4.58;3.70;;;;;;;15.74;69.97;99598.20;1695802;84;21069;-72
2021/05/26 02:50:19;;;;;;;5.72;4.00;;;;;;;15.76;70.00;99597.58;1670127;84;21065;-72
2021/05/26 02:52:49;;;;;;;4.53;3.80;;;;;;;15.90;69.84;99606.97;1695959;84;21062;-72
2021/05/26 02:55:19;;;;;;;5.03;4.10;;;;;;;16.01;69.64;99604.13;1683665;84;21107;-72
2021/05/26 02:57:48;;;;;;;6.58;3.85;;;;;;;16.06;69.59;99602.33;1672983;84;21037;-72
2021/05/26 03:00:33;;;;;;;7.25;3.75;;;;;;;16.10;69.39;99598.88;1675395;84;21084;-74
2021/05/26 03:03:02;;;;;;;6.47;3.58;;;;;;;16.19;69.22;99599.36;1686622;84;21074;-74
2021/05/26 03:05:29;;;;;;;6.08;3.70;;;;;;;16.33;68.98;99599.33;1678441;84;21084;-72
2021/05/26 03:07:56;;;;;;;7.53;4.65;;;;;;;16.32;68.93;99574.98;1670406;85;21081;-73
2021/05/26 03:10:22;;;;;;;5.85;3.95;;;;;;;16.30;69.08;99566.28;1690822;85;21524;-73
2021/05/26 03:12:52;;;;;;;6.53;4.28;;;;;;;16.38;69.07;99565.02;1677811;84;21131;-73
2021/05/26 03:15:19;;;;;;;4.95;3.80;;;;;;;16.52;68.92;99572.53;1651585;87;21117;-73
2021/05/26 03:17:47;;;;;;;4.75;3.98;;;;;;;16.59;69.00;99571.44;1667260;86;21075;-73
2021/05/26 03:20:16;;;;;;;5.50;4.03;;;;;;;16.67;69.05;99569.34;1668726;86;21078;-73
2021/05/26 03:22:45;;;;;;;4.97;3.42;;;;;;;16.77;68.81;99562.59;1702179;84;21060;-73
2021/05/26 03:25:31;;;;;;;6.00;4.22;;;;;;;16.99;68.34;99561.31;1713962;84;21097;-73
2021/05/26 03:27:59;;;;;;;5.20;3.87;;;;;;;16.98;67.94;99546.27;1712480;84;21605;-73
2021/05/26 03:30:26;;;;;;;6.92;4.58;;;;;;;17.06;67.92;99566.39;1697387;84;21059;-73
2021/05/26 03:32:52;;;;;;;5.25;3.80;;;;;;;17.06;68.00;99574.41;1687456;84;21532;-73
2021/05/26 03:35:19;;;;;;;6.62;4.12;;;;;;;17.14;68.00;99578.47;1686006;84;21088;-73
2021/05/26 03:37:48;;;;;;;6.15;4.47;;;;;;;17.38;67.58;99586.34;1709803;84;21609;-73
2021/05/26 03:40:16;;;;;;;7.03;5.17;;;;;;;17.53;67.20;99604.83;1714013;84;21094;-73
2021/05/26 03:42:47;;;;;;;5.42;4.70;;;;;;;17.60;66.85;99600.20;1704519;84;21078;-73
2021/05/26 03:45:15;;;;;;;5.45;4.08;;;;;;;17.78;66.40;99621.53;1689447;84;21038;-73
2021/05/26 03:47:45;;;;;;;7.15;4.65;;;;;;;17.94;65.68;99646.22;1697911;83;21100;-73
2021/05/26 03:50:13;;;;;;;6.50;4.12;;;;;;;18.09;65.24;99659.86;1656685;84;21013;-73
2021/05/26 03:52:45;;;;;;;7.05;4.80;;;;;;;18.20;65.04;99650.22;1713151;84;21102;-74
2021/05/26 03:55:17;;;;;;;8.53;4.67;;;;;;;18.14;65.11;99652.19;1675273;84;20971;-73
2021/05/26 03:57:44;;;;;;;7.35;4.75;;;;;;;18.05;65.09;99647.80;1713976;84;21074;-73
2021/05/26 04:00:15;;;;;;;4.75;3.75;;;;;;;17.95;65.35;99649.23;1713402;84;21597;-73
2021/05/26 04:02:43;;;;;;;6.78;4.12;;;;;;;17.99;65.54;99665.31;1706677;84;21653;-73
2021/05/26 04:05:10;;;;;;;6.65;4.42;;;;;;;18.11;65.43;99660.55;1690673;84;21568;-73
2021/05/26 04:07:37;;;;;;;7.80;4.28;;;;;;;18.22;65.27;99666.94;1697232;84;21066;-73
2021/05/26 04:10:07;;;;;;;5.20;3.65;;;;;;;18.26;65.35;99669.66;1709476;84;21074;-74
2021/05/26 04:12:35;;;;;;;10.20;3.90;;;;;;;18.26;65.38;99671.00;1707463;84;21065;-73
2021/05/26 04:15:06;;;;;;;12.53;3.92;;;;;;;18.28;65.55;99674.84;1689195;84;21561;-73
2021/05/26 04:17:54;;;;;;;8.73;4.03;;;;;;;18.33;65.81;99669.84;1660910;86;21160;-73
2021/05/26 04:20:22;;;;;;;4.83;4.22;;;;;;;18.29;66.28;99671.17;1683943;84;21018;-73
2021/05/26 04:22:49;;;;;;;4.62;3.70;;;;;;;18.24;66.59;99666.29;1692002;84;21109;-73
2021/05/26 04:25:16;;;;;;;5.20;3.30;;;;;;;18.21;66.98;99667.96;1671054;84;21120;-73
2021/05/26 04:27:43;;;;;;;5.00;3.80;;;;;;;18.33;66.88;99663.16;1696124;84;21073;-75
2021/05/26 04:30:12;;;;;;;6.72;4.20;;;;;;;18.42;66.87;99662.19;1673828;84;21107;-73
2021/05/26 04:32:41;;;;;;;6.72;4.35;;;;;;;18.44;67.21;99657.52;1690866;85;21081;-73
2021/05/26 04:35:11;;;;;;;6.10;4.17;;;;;;;18.47;67.13;99652.34;1695892;84;21025;-73
2021/05/26 04:37:38;;;;;;;5.12;3.98;;;;;;;18.48;67.22;99642.80;1695550;84;21057;-75
2021/05/26 04:40:06;;;;;;;8.00;4.45;;;;;;;18.57;66.85;99646.34;1695207;84;21085;-75
2021/05/26 04:42:34;;;;;;;5.75;4.20;;;;;;;18.65;66.71;99653.56;1690390;85;21026;-74
2021/05/26 04:45:02;;;;;;;9.55;4.50;;;;;;;18.62;66.67;99667.27;1689788;84;21089;-73
2021/05/26 04:47:29;;;;;;;5.95;4.10;;;;;;;18.56;66.58;99669.28;1695745;84;21018;-73
2021/05/26 04:49:57;;;;;;;5.80;3.98;;;;;;;18.51;66.80;99670.58;1688081;84;21037;-73
2021/05/26 04:52:23;;;;;;;8.25;4.60;;;;;;;18.59;66.79;99678.31;1692154;84;21100;-74
2021/05/26 04:54:50;;;;;;;8.58;4.65;;;;;;;18.53;66.85;99674.94;1686034;84;21165;-73
2021/05/26 04:57:16;;;;;;;6.40;4.67;;;;;;;18.45;67.00;99668.58;1691147;84;21069;-73
2021/05/26 04:59:44;;;;;;;5.97;3.90;;;;;;;18.36;67.18;99678.06;1689393;84;21072;-74
2021/05/26 05:02:10;;;;;;;8.55;4.47;;;;;;;18.37;67.31;99677.89;1688428;84;21144;-74
2021/05/26 05:04:37;;;;;;;5.20;4.50;;;;;;;18.39;67.38;99667.88;1684516;85;21060;-75
2021/05/26 05:07:04;;;;;;;10.75;9.63;;;;;;;18.33;67.65;99665.83;1681667;85;21723;-75
2021/05/26 05:09:31;;;;;;;10.35;9.15;;;;;;;18.27;67.85;99667.81;1688801;84;21065;-76
2021/05/26 05:11:59;;;;;;;6.15;4.47;;;;;;;18.23;68.08;99651.73;1688041;84;21632;-75
2021/05/26 05:14:25;;;;;;;7.22;4.53;;;;;;;18.31;68.04;99667.82;1691897;83;21651;-75
2021/05/26 05:16:51;;;;;;;7.62;4.80;;;;;;;18.33;68.18;99660.48;1677110;84;21594;-75
2021/05/26 05:19:18;;;;;;;7.25;4.58;;;;;;;18.26;68.40;99661.62;1674780;84;21048;-74
2021/05/26 05:21:46;;;;;;;5.72;4.87;;;;;;;18.28;68.62;99657.45;1677912;84;21316;-75
2021/05/26 05:24:13;;;;;;;8.30;5.53;;;;;;;18.43;68.34;99658.52;1694986;84;21117;-75
2021/05/26 05:26:40;;;;;;;13.95;5.45;;;;;;;18.47;68.32;99655.02;1689526;84;21109;-74
2021/05/26 05:29:06;;;;;;;11.80;5.30;;;;;;;18.48;68.29;99666.90;1689515;84;21049;-75
2021/05/26 05:31:33;;;;;;;6.80;4.50;;;;;;;18.53;68.08;99673.60;1666255;86;21073;-76
2021/05/26 05:33:59;;;;;;;8.70;5.20;;;;;;;18.60;67.87;99681.34;1686326;84;21077;-77
2021/05/26 05:36:26;;;;;;;8.95;5.00;;;;;;;18.68;67.44;99678.67;1659026;84;21045;-76
2021/05/26 05:38:53;;;;;;;20.25;5.67;;;;;;;18.67;67.55;99693.09;1683227;84;21053;-77
2021/05/26 05:41:19;;;;;;;6.67;5.05;;;;;;;18.66;67.66;99688.73;1675990;85;21045;-76
2021/05/26 05:43:46;;;;;;;8.80;5.05;;;;;;;18.77;67.66;99680.89;1676061;85;21078;-76
2021/05/26 05:46:14;;;;;;;7.08;4.70;;;;;;;19.06;67.51;99685.02;1663166;85;21001;-76
2021/05/26 05:48:40;;;;;;;8.90;5.12;;;;;;;19.31;66.78;99689.41;1669049;84;21664;-77
2021/05/26 05:51:07;;;;;;;8.40;5.62;;;;;;;19.53;66.40;99680.84;1683015;84;21065;-77
2021/05/26 05:53:34;;;;;;;6.92;5.00;;;;;;;19.79;65.96;99673.97;1674439;84;21092;-75
2021/05/26 05:56:02;;;;;;;7.25;4.80;;;;;;;20.02;65.20;99674.13;1690429;84;21064;-76
2021/05/26 05:58:28;;;;;;;12.65;4.80;;;;;;;20.29;64.32;99682.77;1680508;85;21634;-77
2021/05/26 06:00:54;;;;;;;6.08;4.10;;;;;;;20.54;63.76;99681.36;1672231;85;21582;-77
2021/05/26 06:03:23;;;;;;;12.82;5.03;;;;;;;20.72;63.15;99683.30;1677059;84;21141;-79
2021/05/26 06:05:50;;;;;;;8.83;5.15;;;;;;;20.92;62.73;99693.11;1687982;84;21018;-76
2021/05/26 06:08:16;;;;;;;13.93;5.12;;;;;;;21.18;62.30;99692.46;1681001;84;21069;-77
2021/05/26 06:10:42;;;;;;;13.72;4.95;;;;;;;21.41;61.57;99693.28;1666620;84;21614;-77
2021/05/26 06:13:10;;;;;;;6.08;3.85;;;;;;;21.64;60.81;99692.95;1660679;85;21107;-76
2021/05/26 06:15:41;;;;;;;6.15;4.20;;;;;;;21.84;60.13;99690.59;1676092;85;21057;-76
2021/05/26 06:18:08;;;;;;;8.20;4.10;;;;;;;21.99;59.26;99693.32;1662142;86;21635;-76
2021/05/26 06:20:37;;;;;;;7.35;4.20;;;;;;;22.01;59.04;99689.42;1693379;85;21625;-76
2021/05/26 06:23:05;;;;;;;9.50;4.22;;;;;;;22.02;58.78;99692.45;1661908;86;21079;-76
2021/05/26 06:25:31;;;;;;;7.33;4.60;;;;;;;22.02;58.61;99693.79;1693240;85;21069;-76
2021/05/26 06:30:57;;;;;;;6.00;4.00;;;;;;;21.94;57.93;99705.97;1778493;79;22328;-77
2021/05/26 06:33:24;;;;;;;5.87;3.80;;;;;;;21.80;57.79;99710.83;1752510;82;21062;-77
2021/05/26 06:35:51;;;;;;;4.42;3.42;;;;;;;21.71;57.57;99706.84;1742491;82;21054;-77
2021/05/26 06:38:18;;;;;;;5.30;3.72;;;;;;;21.56;57.55;99708.17;1722524;83;21622;-77
2021/05/26 06:40:46;;;;;;;8.20;4.03;;;;;;;21.43;57.76;99702.52;1709484;82;21066;-77
2021/05/26 06:43:14;;;;;;;11.30;4.40;;;;;;;21.38;57.75;99707.10;1709547;82;21067;-79
2021/05/26 06:45:40;;;;;;;6.80;3.87;;;;;;;21.37;57.67;99706.77;1722398;83;21050;-76
2021/05/26 06:48:07;;;;;;;6.40;4.28;;;;;;;21.44;57.62;99715.80;1730932;82;21015;-74
2021/05/26 06:50:34;;;;;;;20.30;4.58;;;;;;;21.55;57.60;99719.94;1727070;82;21121;-74
2021/05/26 06:53:00;;;;;;;9.33;3.80;;;;;;;21.58;57.71;99724.13;1723092;82;21145;-74
2021/05/26 06:55:27;;;;;;;9.93;5.00;;;;;;;21.58;57.60;99722.27;1730289;82;21581;-75
2021/05/26 06:57:53;;;;;;;7.95;3.80;;;;;;;21.59;57.30;99713.70;1738938;82;21059;-73
2021/05/26 07:00:19;;;;;;;6.20;3.75;;;;;;;21.61;57.60;99711.64;1728487;80;21054;-75
2021/05/26 07:02:46;;;;;;;5.47;3.60;;;;;;;21.67;57.91;99717.66;1748971;80;21022;-75
2021/05/26 07:05:12;;;;;;;5.72;3.80;;;;;;;21.83;57.73;99722.07;1732256;82;21050;-76
2021/05/26 07:07:39;;;;;;;8.63;4.08;;;;;;;21.98;57.55;99719.91;1678677;84;21119;-76
2021/05/26 07:10:08;;;;;;;4.45;3.85;;;;;;;22.04;57.50;99725.39;1708423;82;21089;-76
2021/05/26 07:12:34;;;;;;;5.78;3.85;;;;;;;22.09;57.23;99728.37;1694587;82;21565;-76
2021/05/26 07:15:01;;;;;;;7.25;3.70;;;;;;;22.08;56.92;99738.84;1698539;82;21105;-75
2021/05/26 07:17:28;;;;;;;5.78;3.83;;;;;;;22.03;56.86;99741.22;1700602;84;21662;-75
2021/05/26 07:19:56;;;;;;;5.87;3.92;;;;;;;22.00;57.13;99743.46;1695275;82;21116;-75
2021/05/26 07:22:24;;;;;;;4.83;3.60;;;;;;;21.95;57.32;99753.42;1693012;84;21117;-75
2021/05/26 07:24:50;;;;;;;9.90;3.72;;;;;;;21.87;57.50;99754.85;1693074;84;21060;-75
2021/05/26 07:27:16;;;;;;;5.05;3.52;;;;;;;21.88;57.72;99754.66;1695208;83;21006;-74
2021/05/26 07:29:42;;;;;;;5.70;3.25;;;;;;;21.96;57.79;99751.55;1699377;82;21685;-75
2021/05/26 07:32:09;;;;;;;7.03;3.50;;;;;;;21.92;57.68;99755.97;1687187;82;21585;-74
2021/05/26 07:34:37;;;;;;;5.80;3.60;;;;;;;21.88;57.72;99759.20;1686969;84;21046;-73
2021/05/26 07:37:04;;;;;;;5.65;3.60;;;;;;;21.85;57.90;99762.27;1692180;82;21612;-73
2021/05/26 07:39:37;;;;;;;5.20;3.95;;;;;;;21.84;57.72;99763.27;1692920;84;21541;-73
2021/05/26 07:42:04;;;;;;;5.87;3.87;;;;;;;21.82;57.76;99762.11;1700517;82;21058;-73
2021/05/26 07:44:31;;;;;;;7.67;3.83;;;;;;;21.79;57.63;99763.84;1697832;84;21073;-73
2021/05/26 07:46:57;;;;;;;6.55;3.80;;;;;;;21.77;57.99;99761.30;1698692;83;21077;-72
2021/05/26 07:49:25;;;;;;;5.22;3.67;;;;;;;21.77;58.08;99763.17;1693069;82;21118;-73
2021/05/26 07:51:55;;;;;;;9.33;4.15;;;;;;;21.75;58.47;99766.05;1686281;82;21055;-73
2021/05/26 07:54:23;;;;;;;5.65;3.87;;;;;;;21.74;58.16;99761.67;1692813;83;21086;-73
2021/05/26 07:56:50;;;;;;;7.70;3.85;;;;;;;21.72;58.02;99765.05;1675314;84;21149;-74
2021/05/26 07:59:17;;;;;;;6.20;3.98;;;;;;;21.68;58.22;99766.42;1699116;82;21140;-73
2021/05/26 08:01:43;;;;;;;6.85;4.28;;;;;;;21.72;58.23;99766.39;1686558;82;21055;-74
2021/05/26 08:04:10;;;;;;;8.18;5.80;;;;;;;21.68;58.40;99773.16;1679227;83;21620;-74
2021/05/26 08:06:38;;;;;;;7.40;4.67;;;;;;;21.53;58.76;99763.64;1721590;82;21042;-74
2021/05/26 08:09:06;;;;;;;6.53;4.28;;;;;;;21.36;59.25;99772.34;1728737;81;21539;-75
2021/05/26 08:11:34;;;;;;;7.20;4.00;;;;;;;21.21;59.66;99776.80;1722159;81;21114;-73
2021/05/26 08:14:00;;;;;;;4.75;3.87;;;;;;;21.12;60.01;99770.63;1656333;86;21050;-73
2021/05/26 08:16:27;;;;;;;6.78;3.95;;;;;;;21.03;60.11;99779.23;1742560;81;21115;-75
2021/05/26 08:18:54;;;;;;;5.75;4.15;;;;;;;20.92;60.36;99772.90;1724913;82;21071;-74
2021/05/26 08:21:23;;;;;;;7.95;3.80;;;;;;;20.81;60.56;99781.34;1740906;81;21051;-75
2021/05/26 08:23:49;;;;;;;5.62;3.90;;;;;;;20.48;60.71;99743.31;1684426;84;21078;-75
2021/05/26 08:26:21;;;;;;;18.73;4.78;;;;;;;20.68;60.97;99784.06;1692427;83;21727;-74
2021/05/26 08:28:44;;;;;;;13.03;4.25;;;;;;;20.68;61.21;99787.23;1710530;83;21062;-74
2021/05/26 08:31:12;;;;;;;4.85;3.72;;;;;;;20.69;61.31;99779.02;1714925;82;21075;-76
2021/05/26 08:33:40;;;;;;;5.97;4.35;;;;;;;20.64;61.54;99773.33;1702151;83;21040;-76
2021/05/26 08:36:09;;;;;;;6.50;4.67;;;;;;;20.52;61.71;99769.33;1740557;82;21071;-77
2021/05/26 08:38:38;;;;;;;7.72;4.08;;;;;;;20.49;61.92;99760.25;1739964;81;21051;-75
2021/05/26 08:41:09;;;;;;;6.08;4.30;;;;;;;20.67;61.83;99762.74;1762763;80;20992;-74
2021/05/26 08:43:37;;;;;;;6.22;4.50;;;;;;;20.76;61.66;99773.81;1760412;81;21075;-75
2021/05/26 08:46:04;;;;;;;7.20;4.67;;;;;;;20.79;61.71;99772.97;1732979;82;21030;-75
2021/05/26 08:48:32;;;;;;;6.70;4.95;;;;;;;20.77;61.68;99772.30;1719960;82;21039;-75
2021/05/26 08:50:59;;;;;;;9.13;4.75;;;;;;;20.75;61.93;99775.65;1728908;81;21066;-75
2021/05/26 08:53:25;;;;;;;6.33;4.85;;;;;;;20.71;62.00;99774.84;1712689;82;21110;-75
2021/05/26 08:55:53;;;;;;;7.08;4.47;;;;;;;20.69;62.00;99776.83;1681757;84;21097;-75
2021/05/26 08:58:21;;;;;;;7.47;4.83;;;;;;;20.69;61.99;99780.85;1710745;82;21565;-75
2021/05/26 09:00:48;;;;;;;6.60;5.25;;;;;;;20.60;61.92;99784.06;1670680;84;21077;-75
2021/05/26 09:03:14;;;;;;;7.42;5.62;;;;;;;20.40;62.22;99777.75;1698253;83;21570;-76
2021/05/26 09:05:42;;;;;;;10.10;5.55;;;;;;;20.25;62.62;99780.80;1678058;84;21069;-75
2021/05/26 09:08:23;;;;;;;7.58;4.97;;;;;;;20.11;63.21;99785.84;1678231;82;21083;-75
2021/05/26 09:11:00;;;;;;;5.03;4.53;;;;;;;20.07;63.54;99789.05;1640003;86;21106;-75
2021/05/26 09:13:35;;;;;;;7.70;4.92;;;;;;;20.04;63.79;99784.86;1711173;82;21089;-73
2021/05/26 09:16:05;;;;;;;8.00;5.30;;;;;;;20.04;63.84;99775.45;1682917;84;21098;-73
2021/05/26 09:18:55;;;;;;;7.20;4.80;;;;;;;19.97;64.02;99773.96;1737579;81;21080;-73
2021/05/26 09:21:44;;;;;;;7.90;4.95;;;;;;;19.89;64.05;99769.92;1697534;82;21043;-73
2021/05/26 09:24:25;;;;;;;7.97;5.10;;;;;;;19.74;64.39;99775.08;1762531;81;21007;-73
2021/05/26 09:27:03;;;;;;;6.40;5.22;;;;;;;19.63;64.87;99787.50;1677825;84;21129;-74
2021/05/26 09:29:40;;;;;;;6.22;4.65;;;;;;;19.73;64.94;99780.13;1734080;81;21022;-74
2021/05/26 09:32:20;;;;;;;8.63;5.28;;;;;;;19.87;65.02;99779.14;1727236;82;21035;-74
2021/05/26 09:34:59;;;;;;;7.70;5.03;;;;;;;19.88;65.34;99783.52;1674688;84;22394;-74
2021/05/26 09:37:34;;;;;;;10.30;5.60;;;;;;;19.83;65.52;99785.86;1705603;83;21613;-72
2021/05/26 09:40:10;;;;;;;9.00;5.17;;;;;;;19.73;65.76;99781.47;1726585;81;21041;-74
2021/05/26 09:42:45;;;;;;;9.48;6.05;;;;;;;19.80;65.23;99782.47;1731743;82;21027;-78
2021/05/26 09:45:26;;;;;;;12.73;6.83;;;;;;;19.85;65.39;99774.44;1708452;81;21043;-73
2021/05/26 09:47:55;;;;;;;6.92;6.10;;;;;;;19.83;65.70;99777.81;1698478;83;21038;-74
2021/05/26 09:50:34;;;;;;;7.33;6.00;;;;;;;19.77;65.98;99792.20;1715273;82;21003;-75
2021/05/26 09:53:19;;;;;;;7.83;6.15;;;;;;;19.71;66.02;99802.25;1727741;81;21207;-75
2021/05/26 09:55:48;;;;;;;10.40;5.70;;;;;;;19.72;66.26;99795.89;1655736;86;21086;-75
2021/05/26 09:58:16;;;;;;;8.00;5.67;;;;;;;19.78;66.31;99804.62;1699082;82;21022;-74
2021/05/26 10:00:46;;;;;;;11.65;6.08;;;;;;;19.80;66.46;99808.47;1698804;82;21131;-75
2021/05/26 10:03:13;;;;;;;9.90;6.28;;;;;;;19.78;66.46;99811.81;1687996;83;22225;-75
2021/05/26 10:05:40;;;;;;;9.03;6.33;;;;;;;19.72;66.80;99821.38;1693294;82;21039;-73
2021/05/26 10:08:25;;;;;;;9.45;6.03;;;;;;;19.73;66.87;99820.86;1739292;81;21058;-74
2021/05/26 10:10:57;;;;;;;8.50;6.30;;;;;;;19.76;67.22;99823.23;1742463;81;21611;-75
2021/05/26 10:13:26;;;;;;;13.38;6.80;;;;;;;19.75;67.80;99821.55;1727685;80;21616;-76
2021/05/26 10:15:52;;;;;;;8.45;6.08;;;;;;;19.70;68.46;99826.57;1675229;84;21584;-75
2021/05/26 10:18:19;;;;;;;8.23;6.10;;;;;;;19.37;68.97;99787.09;1722334;82;21097;-73
2021/05/26 10:20:47;;;;;;;7.53;6.25;;;;;;;19.53;69.24;99818.97;1732729;81;21622;-77
2021/05/26 10:23:17;;;;;;;7.17;5.97;;;;;;;19.51;69.43;99823.69;1724945;81;21574;-76
2021/05/26 10:25:47;;;;;;;8.55;5.90;;;;;;;19.47;69.88;99821.31;1725656;81;21091;-75
2021/05/26 10:28:33;;;;;;;7.28;6.22;;;;;;;19.40;69.83;99818.97;1717398;82;22437;-76
2021/05/26 10:31:02;;;;;;;9.35;6.37;;;;;;;19.26;69.92;99817.75;1728521;80;21054;-74
2021/05/26 10:33:49;;;;;;;8.65;6.28;;;;;;;19.19;70.25;99823.93;1736356;82;21050;-73
2021/05/26 10:36:17;;;;;;;10.65;7.92;;;;;;;19.20;70.37;99829.63;1735051;80;21085;-73
2021/05/26 10:39:00;;;;;;;14.70;10.35;;;;;;;19.34;70.42;99824.98;1736605;80;21097;-76
2021/05/26 10:41:47;;;;;;;8.23;7.25;;;;;;;19.40;70.59;99818.97;1741010;80;21077;-74
2021/05/26 10:44:14;;;;;;;8.35;7.40;;;;;;;19.41;70.64;99823.34;1745543;80;21078;-74
2021/05/26 10:46:43;;;;;;;12.07;6.92;;;;;;;19.40;70.60;99825.67;1737127;81;21015;-77
2021/05/26 10:49:12;;;;;;;10.53;6.80;;;;;;;19.45;70.77;99813.09;1746161;80;21077;-76
2021/05/26 10:51:56;;;;;;;10.98;6.85;;;;;;;19.60;70.49;99814.64;1732174;82;21149;-75
2021/05/26 10:54:44;;;;;;;9.53;7.65;;;;;;;19.63;70.37;99814.33;1749873;80;21049;-74
2021/05/26 10:57:11;;;;;;;9.55;6.62;;;;;;;19.60;70.55;99813.30;1726208;82;21039;-74
2021/05/26 10:59:38;;;;;;;9.80;6.83;;;;;;;19.59;70.54;99812.95;1752127;80;21052;-74
2021/05/26 11:02:11;;;;;;;10.82;8.63;;;;;;;19.61;70.15;99809.11;1732169;82;21046;-74
2021/05/26 11:04:40;;;;;;;8.45;6.92;;;;;;;19.61;70.33;99810.96;1744607;80;21569;-75
2021/05/26 11:07:32;;;;;;;9.68;7.83;;;;;;;19.55;70.40;99805.73;1673692;84;21629;-74
2021/05/26 11:10:05;;;;;;;16.12;8.78;;;;;;;19.45;70.56;99804.56;1748784;81;21104;-73
2021/05/26 11:12:59;;;;;;;9.53;7.53;;;;;;;19.37;70.64;99804.53;1672290;84;21059;-75
2021/05/26 11:15:43;;;;;;;8.90;7.85;;;;;;;19.40;70.66;99794.83;1743176;80;21054;-75
2021/05/26 11:20:52;;;;;;;10.38;7.05;;;;;;;19.27;71.37;99793.11;1737075;82;21105;-73
2021/05/26 11:23:18;;;;;;;8.35;7.12;;;;;;;19.35;71.12;99801.19;1768176;80;21026;-73
2021/05/26 11:25:54;;;;;;;8.60;7.50;;;;;;;19.46;70.66;99798.20;1752382;80;21091;-74
2021/05/26 11:28:35;;;;;;;7.10;6.40;;;;;;;19.46;70.58;99798.20;1761859;80;21093;-73
2021/05/26 11:31:06;;;;;;;12.07;7.83;;;;;;;19.40;70.83;99797.52;1735237;81;21618;-73
2021/05/26 11:33:35;;;;;;;10.82;7.97;;;;;;;19.28;71.06;99793.45;1739380;81;21554;-75
2021/05/26 11:36:05;;;;;;;12.15;8.50;;;;;;;19.27;71.03;99785.06;1740050;81;21534;-75
2021/05/26 11:38:33;;;;;;;9.73;8.23;;;;;;;19.38;70.93;99796.83;1763751;81;21086;-72
2021/05/26 11:41:02;;;;;;;11.20;8.95;;;;;;;19.35;70.94;99790.95;1689407;84;21039;-74
2021/05/26 11:43:34;;;;;;;10.30;8.35;;;;;;;19.31;70.78;99793.14;1743961;81;21597;-74
2021/05/26 11:46:08;;;;;;;9.00;7.25;;;;;;;19.32;70.85;99784.08;1730127;81;21079;-75
2021/05/26 11:48:35;;;;;;;10.30;7.42;;;;;;;19.42;70.60;99776.72;1659732;86;21063;-75
2021/05/26 11:51:03;;;;;;;8.48;7.65;;;;;;;19.45;70.61;99767.02;1728049;81;21050;-76